createdAt,value
2023-03-31T00:03:09.128Z,995.921
2023-03-31T00:23:08.054Z,995.734
2023-03-31T00:43:08.047Z,995.394
2023-03-31T01:03:09.170Z,995.096
2023-03-31T01:23:07.369Z,994.657
2023-03-31T01:43:07.215Z,994.489
2023-03-31T02:03:08.656Z,994.166
2023-03-31T02:23:07.640Z,993.921
2023-03-31T02:43:07.543Z,993.581
2023-03-31T03:03:09.225Z,993.424
2023-03-31T03:23:07.194Z,992.821
2023-03-31T03:43:08.026Z,992.222
2023-03-31T04:03:09.052Z,991.561
2023-03-31T04:23:07.911Z,991.448
2023-03-31T04:43:08.152Z,991.022
2023-03-31T05:03:08.444Z,990.586
2023-03-31T05:23:07.572Z,990.37
2023-03-31T05:43:07.398Z,990.064
2023-03-31T06:03:08.807Z,989.768
2023-03-31T06:23:07.794Z,989.326
2023-03-31T06:43:07.784Z,989.052
2023-03-31T07:03:09.400Z,988.606
2023-03-31T07:23:07.460Z,988.32
2023-03-31T07:43:07.393Z,988.132
2023-03-31T08:03:08.588Z,988.018
2023-03-31T08:23:07.786Z,987.919
2023-03-31T08:43:07.990Z,987.939
2023-03-31T09:03:09.516Z,987.807
2023-03-31T09:23:07.454Z,987.584
2023-03-31T09:43:07.642Z,987.563
2023-03-31T10:03:09.310Z,987.386
2023-03-31T10:23:07.340Z,987.078
2023-03-31T10:43:07.217Z,986.783
2023-03-31T11:03:08.621Z,986.603
2023-03-31T11:23:07.620Z,986.194
2023-03-31T11:43:07.645Z,986.241
2023-03-31T12:03:09.037Z,986.124
2023-03-31T12:23:07.976Z,985.838
2023-03-31T12:43:07.981Z,985.776
2023-03-31T13:03:09.144Z,986.34
2023-03-31T13:23:08.106Z,986.103
2023-03-31T13:43:07.114Z,985.956
2023-03-31T14:03:09.442Z,986.027
2023-03-31T14:23:07.474Z,985.97
2023-03-31T14:43:07.436Z,985.76
2023-03-31T15:03:08.572Z,985.532
2023-03-31T15:23:07.460Z,985.333
2023-03-31T15:43:26.613Z,985.204
2023-03-31T16:03:08.846Z,984.929
2023-03-31T16:23:07.800Z,984.815
2023-03-31T16:43:07.777Z,984.638
2023-03-31T17:03:09.169Z,985.407
2023-03-31T17:23:07.068Z,985.381
2023-03-31T17:43:08.001Z,985.321
2023-03-31T18:03:09.189Z,985.258
2023-03-31T18:23:07.167Z,985.298
2023-03-31T18:43:07.229Z,985.362
2023-03-31T19:03:08.541Z,985.4
2023-03-31T19:23:07.495Z,985.397
2023-03-31T19:43:07.681Z,985.588
2023-03-31T20:03:09.468Z,985.42
2023-03-31T20:23:07.420Z,985.366
2023-03-31T20:43:07.553Z,985.278
2023-03-31T21:03:08.697Z,985.235
2023-03-31T21:23:07.838Z,985.218
2023-03-31T21:43:08.097Z,985.189
2023-03-31T22:03:28.962Z,985.188
2023-03-31T22:23:07.877Z,985.248
2023-03-31T22:43:07.650Z,985.286
2023-03-31T23:03:08.565Z,985.358
2023-03-31T23:23:07.464Z,985.388
2023-03-31T23:43:07.179Z,985.416
